Historyczne dane pomiarowe

Dodano dane terminowe – wersja testowa.

Dane z okresu 1951-2019

Wersja bazy: 1.34 [2019-03-16, lista zmian], aktualizacja planowana na 2019-04-15

Dane meteo z obszaru Polski uzyskane na podstawie danych udostępnionych przez Instytut Meteorologii i Gospodarki Wodnej – Państwowy Instytut Badawczy.

 

Wybierz Datę:    

       

TemperaturaWilgotnośćWiatrCiśnienieOpadyŚniegCzas trwania zjawisk
 Stacja t tx tn tng RH VA  wxwx mslp ppp RRR   cm mm wxwxwxwxwxwxwx
1987-08-14 14.2 20.3 8.3--- 6.3 2.3---- 1.4------------
1987-08-13 13.1 18.0 9.8--- 7.0 1.7---- 0.0------------
1987-08-12 12.0 16.5 9.9--- 6.3 3.3---- 2.2------------
1987-08-11 13.3 16.5 9.8--- 6.0 1.3---- 0.0------------
1987-08-10 14.4 17.0 12.7--- 7.3 3.0---- 0.3------------
1987-08-09 15.9 21.3 8.9--- 5.3 1.0---- 13.5------------
1987-08-08 14.6 20.8 7.4--- 3.3 2.0---- 1.0------------
1987-08-07 13.1 18.0 9.3--- 2.7 2.0---- 0.0------------
1987-08-06 12.8 16.2 9.6--- 6.0 3.7---- 1.8------------
1987-08-05 12.3 17.0 7.0--- 3.3 1.7---- 0.1------------
1987-08-04 12.5 16.1 7.6--- 6.7 2.3---- 1.0------------
1987-08-03 13.0 17.7 9.3--- 6.3 3.0---- 0.0------------
1987-08-02 14.6 17.9 11.0--- 4.3 3.0---- 3.7------------
1987-08-01 15.0 19.2 11.5--- 8.0 2.3---- 0.7------------
1987-07-31 14.6 17.5 12.2--- 7.0 2.3---- 11.7------------
1987-07-30 15.9 21.8 11.3--- 4.7 1.3---- 8.5------------
1987-07-29 14.8 18.8 10.2--- 5.3 1.0---- 3.0------------
1987-07-28 14.3 18.0 11.1--- 5.7 3.0---- 1.5------------
1987-07-27 10.9 15.9 6.7--- 6.3 2.0---- 5.0------------
1987-07-26 13.7 17.0 12.1--- 4.0 2.0---- 0.2------------
1987-07-25 17.6 20.9 14.3--- 5.0 3.3---- 0.0------------
1987-07-24 19.6 25.0 15.1--- 4.3 2.7---- 0.0------------
1987-07-23 20.8 26.0 15.9--- 3.7 1.0---- 0.2------------
1987-07-22 19.8 25.0 13.9--- 4.3 0.3---- 0.3------------
1987-07-21 17.5 24.0 12.0--- 1.3 1.3---- 0.0------------
1987-07-20 17.2 20.7 14.2--- 7.7 2.0---- 1.3------------
1987-07-19 19.2 22.9 14.2--- 6.3 4.3---- 52.0------------
1987-07-18 19.4 25.0 15.3--- 3.7 4.0---- 0.0------------
1987-07-17 18.6 23.4 13.3--- 3.3 5.0---- 0.0------------
1987-07-16 17.0 21.9 10.4--- 4.0 2.3---- 0.0------------
1987-07-15 16.6 21.7 7.1--- 1.7 0.3---- 0.0------------
1987-07-14 15.0 20.2 11.1--- 3.7 2.3---- 0.0------------
1987-07-13 15.1 18.7 12.1--- 3.7 3.7---- 0.0------------
1987-07-12 15.6 16.9 14.2--- 7.7 1.0---- 14.2------------
1987-07-11 12.9 14.8 9.1--- 7.7 2.0---- 9.5------------
1987-07-10 14.4 17.5 11.2--- 5.3 3.0---- 0.0------------
1987-07-09 17.3 20.9 15.3--- 7.0 2.3---- 0.7------------
1987-07-08 19.5 28.0 10.8--- 3.3 3.0---- 15.0------------
1987-07-07 19.5 25.7 10.5--- 0.7 1.7---- 0.0------------
1987-07-06 18.0 24.0 10.0--- 0.7 1.0---- 0.0------------
1987-07-05 17.0 22.6 10.0--- 2.7 2.7---- 0.0------------
1987-07-04 15.6 19.8 10.6--- 3.3 1.0---- 0.0------------
1987-07-03 16.4 22.7 10.8--- 2.3 1.3---- 0.0------------
1987-07-02 18.8 23.0 15.1--- 1.7 2.3---- 0.0------------
1987-07-01 23.4 29.6 18.7--- 2.7 1.7---- 0.0------------
1987-06-30 22.9 27.9 18.4--- 4.7 1.0---- 0.0------------
1987-06-29 15.2 22.3 7.5--- 6.3 1.7---- 2.0------------
1987-06-28 14.9 18.7 12.7--- 5.3 2.0---- 2.0------------
1987-06-27 16.7 21.0 12.9--- 5.3 1.3---- 1.2------------
1987-06-26 15.0 20.4 9.7--- 5.0 2.0---- 5.5------------
1987-06-25 12.7 17.1 11.9--- 6.3 2.0---- 12.5------------
1987-06-24 15.3 19.3 12.5--- 4.7 2.7---- 5.5------------
1987-06-23 14.3 19.5 10.4--- 7.0 1.7---- 0.0------------
1987-06-22 18.3 24.7 11.6--- 3.3 0.7---- 0.0------------
1987-06-21 16.3 23.2 9.1--- 4.7 0.7---- 0.0------------
1987-06-20 14.0 21.1 4.1--- 4.0 2.7---- 0.0------------
1987-06-19 10.1 15.8 4.1--- 6.7 3.7---- 2.2------------
1987-06-18 10.6 16.7 4.2--- 4.3 4.0---- 2.7------------
1987-06-17 12.0 14.0 10.2--- 5.7 3.3---- 0.0------------
1987-06-16 12.6 22.2 10.5--- 8.0 3.0---- 0.8------------
1614.5 ms

 

Źródłem pochodzenia danych jest Instytut Meteorologii i Gospodarki Wodnej – Państwowy Instytut Badawczy. Dane Instytutu Meteorologii i Gospodarki Wodnej – Państwowego Instytutu Badawczego zostały przetworzone.

Dane źródłowe można odnaleźć na stronie https://dane.imgw.pl